Terminal Aerodrome Forecast
Issued by NWS Mt. Holly, NJ

Home | Current Version | Previous Version | Text Only | Print | Product List | Glossary On
Versions: 1 2 3 4 5 6 7 8 9 10 11 12 13 14 15 16 17 18 19 20 21 22 23
073
FTUS41 KPHI 241737
TAFTTN
TAF
KTTN 241737Z 2418/2518 34015G22KT 4SM -RADZ BR BKN009 OVC015
      TEMPO 2419/2423 2SM -RADZ BKN015 OVC025
     FM242300 33015G25KT 5SM -RADZ BR OVC025
     FM250300 32015G25KT P6SM BKN035 BKN080
     FM250900 31010G20KT P6SM OVC025=

USA.gov is the U.S. government's official web portal to all federal, state and local government web resources and services.